Flight Track Log - Related Links

Times and Time Zones

All times are in EDT time to prevent confusion due to time zone crossing. See the N5060V flight status page for this flight to view local times or setup timezone preferences in your user account.

Time Position Orientation Groundspeed Altitude Reporting Facility
EDT Latitude Longitude Course Direction KTS MPH feet Rate Location/Type
Sat 09:18:53 PM 41.4986 -83.0064 261° West 127 146 8,700  Level Cleveland Center
Sat 09:19:53 PM 41.4936 -83.0478 261° West 122 140 9,500 595 Climbing Cleveland Center
Sat 09:20:54 PM 41.4944 -83.0975 271° West 140 161 9,900 242 Climbing Cleveland Center
Sat 09:21:57 PM 41.4953 -83.1558 271° West 159 183 10,000 390 Climbing Cleveland Center
Sat 09:22:57 PM 41.4919 -83.2167 266° West 164 189 10,700 655 Climbing Cleveland Center
Sat 09:23:56 PM 41.4906 -83.2722 268° West 146 168 11,300 655 Climbing Cleveland Center
Sat 09:24:56 PM 41.4608 -83.2931 208° Southwest 133 153 12,000 347 Climbing Cleveland Center
Sat 09:25:57 PM 41.4231 -83.3081 197° South 125 144 12,000 -50 Level Cleveland Center
Sat 09:26:57 PM 41.3831 -83.3258 198° South 144 166 11,900 -50 Descending Cleveland Center
Sat 09:27:57 PM 41.3450 -83.3408 196° South 149 171 11,900  Level Cleveland Center
Sat 09:28:57 PM 41.3050 -83.3556 195° South 149 171 11,900  Level Cleveland Center
Sat 09:29:57 PM 41.2692 -83.3733 200° South 149 171 11,900  Level Cleveland Center
Sat 09:30:54 PM 41.2356 -83.3858 196° South 144 166 11,900  Level Cleveland Center
Sat 09:32:01 PM 41.1914 -83.4033 197° South 142 163 11,900  Level Cleveland Center
Sat 09:33:01 PM 41.1533 -83.4264 205° Southwest 147 169 11,900  Level Cleveland Center
Sat 09:34:02 PM 41.1153 -83.4469 202° Southwest 147 169 11,900 -227 Level Cleveland Center
Sat 09:36:32 PM 41.0136 -83.4850 196° South 156 180 11,100 -398 Descending Indianapolis Center
Sat 09:37:33 PM 40.9694 -83.5033 197° South 162 186 10,500 -545 Descending Indianapolis Center
Sat 09:38:33 PM 40.9225 -83.5206 195° South 167 192 10,000 -298 Descending Indianapolis Center
Sat 09:39:34 PM 40.8803 -83.5386 198° South 164 189 9,900 -49 Descending Indianapolis Center
Sat 09:40:35 PM 40.8414 -83.5542 197° South 154 177 9,900  Level Indianapolis Center
Sat 09:41:36 PM 40.8036 -83.5700 198° South 146 168 9,900  Level Indianapolis Center
Sat 09:42:36 PM 40.7653 -83.5847 196° South 143 165 9,900  Level Indianapolis Center
Sat 09:43:37 PM 40.7264 -83.5992 196° South 143 165 9,900 -148 Level Indianapolis Center
Sat 09:44:38 PM 40.6897 -83.6147 198° South 140 161 9,600 -393 Descending Indianapolis Center
Sat 09:45:39 PM 40.6481 -83.6300 196° South 149 171 9,100 -504 Descending Indianapolis Center
Sat 09:46:37 PM 40.6058 -83.6497 200° South 147 169 8,600 -504 Descending Indianapolis Center
Sat 09:47:38 PM 40.5669 -83.6669 199° South 148 170 8,100 -295 Descending Indianapolis Center
Sat 09:48:39 PM 40.5303 -83.6814 197° South 141 162 8,000 -50 Descending Indianapolis Center
Sat 09:49:39 PM 40.4936 -83.6933 194° South 134 154 8,000 -50 Level Indianapolis Center
Sat 09:50:40 PM 40.4553 -83.7047 193° South 133 153 7,900 -48 Descending Indianapolis Center
Sat 09:51:43 PM 40.4228 -83.7014 176° South 129 148 7,900 -242 Level Indianapolis Center
Sat 09:52:44 PM 40.3881 -83.7036 183° South 125 144 7,400 -492 Descending Indianapolis Center
Sat 09:53:45 PM 40.3594 -83.7075 186° South 113 130 6,900 -496 Descending Indianapolis Center
Sat 09:54:45 PM 40.3300 -83.7111 185° South 107 123 6,400 -496 Descending Indianapolis Center
Sat 09:55:46 PM 40.2986 -83.7158 187° South 109 125 5,900 -492 Descending Indianapolis Center
Sat 09:56:47 PM 40.2644 -83.7203 186° South 116 133 5,400 -545 Descending Indianapolis Center
Sat 09:57:47 PM 40.2306 -83.7236 184° South 119 137 4,800 -545 Descending Indianapolis Center
Sat 09:58:48 PM 40.1983 -83.7272 185° South 118 136 4,300 -393 Descending Indianapolis Center
Sat 09:59:49 PM 40.1678 -83.7303 184° South 114 131 4,000 -148 Descending Indianapolis Center
Sat 10:00:50 PM 40.1392 -83.7331 184° South 108 124 4,000  Level Indianapolis Center
Sat 10:01:50 PM 40.1092 -83.7347 182° South 106 122 4,000 -103 Level Indianapolis Center
Sat 10:02:47 PM 40.0761 -83.7336 179° South 115 132 3,800 -356 Descending Indianapolis Center
Sat 10:03:48 PM 40.0417 -83.7156 158° South 124 143 3,300 -393 Descending Indianapolis Center
Sat 10:04:49 PM 40.0094 -83.7006 160° South 124 143 3,000 -148 Descending Indianapolis Center
Sat 10:05:50 PM 39.9811 -83.6861 159° South 102 117 3,000  Level Indianapolis Center
Sat 10:06:50 PM 39.9544 -83.6772 166° South 106 122 3,000  Level Indianapolis Center
Sat 10:07:51 PM 39.9278 -83.6986 212° Southwest 107 123 3,000 -49 Level Indianapolis Center
Sat 10:08:52 PM 39.9097 -83.7181 220° Southwest 99 114 2,900 -295 Descending Indianapolis Center
Sat 10:09:53 PM 39.8906 -83.7483 230° Southwest 102 117 2,400 -496 Descending Indianapolis Center
Sat 10:10:53 PM 39.8756 -83.7817 240° Southwest 109 125 1,900 -545 Descending Indianapolis Center
Sat 10:11:54 PM 39.8564 -83.8119 230° Southwest 132 152 1,300 -234 Descending Indianapolis Center
Sat 10:13:01 PM 39.8369 -83.8475 235° Southwest 112 129 1,400 90 Climbing Indianapolis Center
Sat 10:15:00 PM 39.7703 -83.9055 214° Southwest  Level FlightAware Approximate
Sat 10:22:00 PM 39.6833 -83.9833 218° Southwest  Level FlightAware Approximate
Sat 10:23:00 PM 39.6910 -83.9920 218° Southwest  Level Estimated

Login

Don't have an account? Register now (free) for customized features, flight alerts, and more!